createdAt,value
2019-02-21T00:01:16.924Z,16.67
2019-02-21T00:03:49.793Z,17.23
2019-02-21T00:06:22.846Z,17.70
2019-02-21T00:08:55.709Z,17.20
2019-02-21T00:11:28.725Z,15.33
2019-02-21T00:14:01.483Z,17.47
2019-02-21T00:16:34.470Z,17.70
2019-02-21T00:19:07.372Z,16.60
2019-02-21T00:21:40.283Z,16.10
2019-02-21T00:24:13.615Z,16.27
2019-02-21T00:26:46.381Z,16.77
2019-02-21T00:29:19.224Z,18.20
2019-02-21T00:31:52.196Z,18.13
2019-02-21T00:34:25.252Z,18.63
2019-02-21T00:36:58.184Z,16.93
2019-02-21T00:39:31.047Z,17.67
2019-02-21T00:42:03.907Z,16.20
2019-02-21T00:44:37.102Z,17.40
2019-02-21T00:47:10.056Z,18.27
2019-02-21T00:49:42.974Z,17.43
2019-02-21T00:52:15.730Z,16.53
2019-02-21T00:54:48.585Z,16.43
2019-02-21T00:57:21.736Z,17.30
2019-02-21T00:59:54.842Z,17.37
2019-02-21T01:02:27.975Z,16.33
2019-02-21T01:05:01.005Z,16.37
2019-02-21T01:07:34.227Z,17.27
2019-02-21T01:10:07.550Z,17.80
2019-02-21T01:12:40.470Z,17.30
2019-02-21T01:15:13.502Z,17.33
2019-02-21T01:17:46.723Z,18.30
2019-02-21T01:20:19.596Z,17.67
2019-02-21T01:22:52.459Z,18.13
2019-02-21T01:25:25.608Z,17.80
2019-02-21T01:27:58.347Z,17.73
2019-02-21T01:30:31.256Z,18.70
2019-02-21T01:33:04.353Z,17.80
2019-02-21T01:35:37.237Z,19.10
2019-02-21T01:38:10.086Z,17.30
2019-02-21T01:40:42.981Z,18.57
2019-02-21T01:43:16.886Z,18.87
2019-02-21T01:45:50.006Z,17.17
2019-02-21T01:48:24.119Z,17.60
2019-02-21T01:50:56.931Z,17.70
2019-02-21T01:53:29.833Z,17.00
2019-02-21T01:56:02.786Z,17.83
2019-02-21T01:58:35.701Z,17.40
2019-02-21T02:01:09.159Z,16.37
2019-02-21T02:03:42.003Z,17.73
2019-02-21T02:06:15.142Z,17.60
2019-02-21T02:08:48.101Z,17.67
2019-02-21T02:11:21.443Z,17.03
2019-02-21T02:13:54.333Z,17.63
2019-02-21T02:16:27.322Z,16.33
2019-02-21T02:19:00.272Z,16.27
2019-02-21T02:21:33.197Z,18.13
2019-02-21T02:24:06.103Z,16.53
2019-02-21T02:26:38.905Z,17.03
2019-02-21T02:29:11.746Z,16.33
2019-02-21T02:31:45.200Z,16.83
2019-02-21T02:34:18.075Z,16.70
2019-02-21T02:36:50.947Z,17.20
2019-02-21T02:39:23.806Z,17.30
2019-02-21T02:41:57.031Z,16.30
2019-02-21T02:44:30.274Z,17.20
2019-02-21T02:47:03.189Z,18.03
2019-02-21T02:49:36.142Z,16.90
2019-02-21T02:52:09.273Z,16.57
2019-02-21T02:54:42.260Z,17.20
2019-02-21T02:57:15.437Z,17.13
2019-02-21T02:59:48.348Z,17.10
2019-02-21T03:02:21.218Z,18.20
2019-02-21T03:04:54.325Z,17.47
2019-02-21T03:07:27.196Z,18.43
2019-02-21T03:10:00.483Z,17.90
2019-02-21T03:12:35.193Z,18.13
2019-02-21T03:15:08.193Z,16.77
2019-02-21T03:17:41.046Z,18.03
2019-02-21T03:20:14.114Z,17.07
2019-02-21T03:22:46.810Z,17.13
2019-02-21T03:25:19.771Z,17.73
2019-02-21T03:27:53.920Z,18.20
2019-02-21T03:30:26.938Z,17.47
2019-02-21T03:32:59.809Z,17.80
2019-02-21T03:35:32.704Z,17.33
2019-02-21T03:38:05.569Z,18.40
2019-02-21T03:40:38.507Z,16.57
2019-02-21T03:43:11.619Z,16.93
2019-02-21T03:45:44.466Z,17.80
2019-02-21T03:48:17.552Z,18.47
2019-02-21T03:50:50.967Z,17.87
2019-02-21T03:53:23.991Z,18.40
2019-02-21T03:55:56.927Z,18.17
2019-02-21T03:58:30.022Z,18.13
2019-02-21T04:01:02.834Z,18.43
2019-02-21T04:03:35.847Z,17.70
2019-02-21T04:06:08.658Z,18.70
2019-02-21T04:08:41.507Z,18.53
2019-02-21T04:11:14.581Z,18.47
2019-02-21T04:13:47.518Z,19.97
2019-02-21T04:16:20.410Z,19.13
2019-02-21T04:18:53.348Z,19.37
2019-02-21T04:21:26.301Z,18.20
2019-02-21T04:23:59.466Z,19.23
2019-02-21T04:26:32.440Z,18.93
2019-02-21T04:29:05.494Z,19.53
2019-02-21T04:31:38.610Z,19.07
2019-02-21T04:34:11.480Z,19.77
2019-02-21T04:36:44.493Z,20.07
2019-02-21T04:39:17.523Z,19.67
2019-02-21T04:41:50.470Z,19.40
2019-02-21T04:44:24.262Z,20.17
2019-02-21T04:46:57.253Z,20.20
2019-02-21T04:49:30.014Z,20.57
2019-02-21T04:52:03.200Z,20.33
2019-02-21T04:54:36.178Z,20.80
2019-02-21T04:57:09.032Z,20.33
2019-02-21T04:59:42.301Z,22.17
2019-02-21T05:02:15.143Z,20.90
2019-02-21T05:04:48.050Z,21.30
2019-02-21T05:07:20.794Z,20.23
2019-02-21T05:09:58.146Z,19.33
2019-02-21T05:12:28.456Z,20.40
2019-02-21T05:15:01.274Z,20.50
2019-02-21T05:17:34.264Z,22.77
2019-02-21T05:20:07.389Z,21.53
2019-02-21T05:22:40.166Z,21.77
2019-02-21T05:25:12.961Z,20.07
2019-02-21T05:27:51.149Z,21.13
2019-02-21T05:30:25.778Z,21.40
2019-02-21T05:33:18.432Z,21.63
2019-02-21T05:36:16.713Z,19.83
2019-02-21T05:38:56.592Z,20.67
2019-02-21T05:41:48.906Z,21.47
2019-02-21T05:44:40.063Z,21.30
2019-02-21T05:47:31.442Z,21.80
2019-02-21T05:50:24.250Z,22.43
2019-02-21T05:53:15.450Z,22.00
2019-02-21T05:55:59.682Z,22.67
2019-02-21T05:58:38.414Z,23.30
2019-02-21T06:01:29.436Z,22.73
2019-02-21T06:04:13.284Z,23.37
2019-02-21T06:06:53.354Z,23.20
2019-02-21T06:09:35.644Z,23.27
2019-02-21T06:12:33.151Z,24.40
2019-02-21T06:15:27.104Z,23.77
2019-02-21T06:18:13.876Z,25.30
2019-02-21T06:21:09.015Z,24.73
2019-02-21T06:24:04.202Z,24.60
2019-02-21T06:27:00.993Z,23.37
2019-02-21T06:29:42.786Z,25.37
2019-02-21T06:32:15.787Z,23.67
2019-02-21T06:34:48.777Z,24.00
2019-02-21T06:37:21.790Z,24.30
2019-02-21T06:39:55.137Z,24.90
2019-02-21T06:42:28.156Z,24.40
2019-02-21T06:45:00.992Z,24.33
2019-02-21T06:47:33.792Z,23.90
2019-02-21T06:50:06.595Z,24.67
2019-02-21T06:52:40.703Z,23.93
2019-02-21T06:55:14.134Z,25.53
2019-02-21T06:57:46.941Z,23.93
2019-02-21T07:00:19.811Z,25.50
2019-02-21T07:02:54.414Z,25.50
2019-02-21T07:05:27.375Z,25.23
2019-02-21T07:08:00.277Z,26.70
2019-02-21T07:10:33.261Z,26.00
2019-02-21T07:13:06.227Z,24.77
2019-02-21T07:15:39.112Z,25.10
2019-02-21T07:18:12.103Z,24.03
2019-02-21T07:20:45.057Z,25.00
2019-02-21T07:23:17.991Z,25.77
2019-02-21T07:25:57.127Z,25.43
2019-02-21T07:28:30.097Z,24.90
2019-02-21T07:31:03.012Z,23.70
2019-02-21T07:33:36.331Z,24.37
2019-02-21T07:36:10.998Z,24.17
2019-02-21T07:38:44.408Z,24.70
2019-02-21T07:41:18.678Z,24.27
2019-02-21T07:43:52.027Z,24.10
2019-02-21T07:46:25.056Z,23.67
2019-02-21T07:48:57.977Z,25.10
2019-02-21T07:51:31.152Z,26.20
2019-02-21T07:54:04.378Z,25.90
2019-02-21T07:56:42.126Z,25.20
2019-02-21T07:59:12.393Z,26.03
2019-02-21T08:01:45.481Z,25.87
2019-02-21T08:04:18.642Z,24.50
2019-02-21T08:06:51.580Z,24.20
2019-02-21T08:09:27.759Z,24.13
2019-02-21T08:12:00.317Z,23.77
2019-02-21T08:14:33.375Z,23.80
2019-02-21T08:17:06.334Z,23.57
2019-02-21T08:19:39.266Z,23.53
2019-02-21T08:22:12.271Z,22.60
2019-02-21T08:24:45.317Z,22.53
2019-02-21T08:27:18.323Z,22.63
2019-02-21T08:29:52.199Z,23.60
2019-02-21T08:32:47.539Z,23.10
2019-02-21T08:35:20.492Z,24.43
2019-02-21T08:37:53.638Z,23.00
2019-02-21T08:40:26.729Z,24.30
2019-02-21T08:42:59.805Z,23.10
2019-02-21T08:45:32.647Z,22.33
2019-02-21T08:48:05.653Z,22.80
2019-02-21T08:50:38.779Z,22.57
2019-02-21T08:53:13.010Z,23.17
2019-02-21T08:55:46.444Z,22.53
2019-02-21T08:58:19.340Z,22.50
2019-02-21T09:00:54.352Z,22.17
2019-02-21T09:03:27.199Z,23.10
2019-02-21T09:06:01.703Z,23.12
2019-02-21T09:08:37.056Z,24.60
2019-02-21T09:11:09.933Z,23.50
2019-02-21T09:13:43.098Z,23.23
2019-02-21T09:16:17.827Z,22.53
2019-02-21T09:18:51.213Z,23.52
2019-02-21T09:21:24.279Z,22.52
2019-02-21T09:23:57.311Z,23.47
2019-02-21T09:26:30.623Z,26.10
2019-02-21T09:29:03.441Z,25.02
2019-02-21T09:31:36.985Z,24.45
2019-02-21T09:34:20.588Z,24.65
2019-02-21T09:36:45.922Z,23.42
2019-02-21T09:39:18.968Z,24.20
2019-02-21T09:41:52.108Z,28.12
2019-02-21T09:44:27.379Z,27.62
2019-02-21T09:47:00.142Z,28.65
2019-02-21T09:49:33.534Z,28.27
2019-02-21T09:52:06.694Z,28.80
2019-02-21T09:54:39.803Z,29.32
2019-02-21T09:57:13.732Z,27.25
2019-02-21T09:59:47.108Z,29.20
2019-02-21T10:02:20.113Z,28.47
2019-02-21T10:05:04.218Z,28.55
2019-02-21T10:07:28.026Z,29.57
2019-02-21T10:10:01.270Z,28.90
2019-02-21T10:12:35.597Z,27.58
2019-02-21T10:15:08.905Z,28.60
2019-02-21T10:17:41.772Z,28.70
2019-02-21T10:20:16.934Z,28.12
2019-02-21T10:22:49.990Z,27.90
2019-02-21T10:25:24.599Z,27.93
2019-02-21T10:27:59.000Z,27.50
2019-02-21T10:30:32.428Z,31.87
2019-02-21T10:33:05.368Z,28.65
2019-02-21T10:35:38.226Z,29.02
2019-02-21T10:38:11.429Z,28.67
2019-02-21T10:40:44.585Z,30.32
2019-02-21T10:43:17.431Z,30.25
2019-02-21T10:45:50.461Z,28.52
2019-02-21T10:48:23.404Z,29.32
2019-02-21T10:50:56.530Z,29.32
2019-02-21T10:53:29.856Z,28.62
2019-02-21T10:56:02.799Z,28.98
2019-02-21T10:58:35.911Z,29.00
2019-02-21T11:01:09.029Z,29.57
2019-02-21T11:03:42.084Z,30.52
2019-02-21T11:06:15.074Z,31.15
2019-02-21T11:08:48.263Z,31.95
2019-02-21T11:11:21.256Z,32.88
2019-02-21T11:13:54.439Z,35.08
2019-02-21T11:16:27.422Z,33.67
2019-02-21T11:19:00.587Z,31.95
2019-02-21T11:21:33.607Z,33.33
2019-02-21T11:24:07.029Z,31.23
2019-02-21T11:26:40.201Z,33.10
2019-02-21T11:29:14.296Z,33.90
2019-02-21T11:31:47.372Z,34.00
2019-02-21T11:34:20.235Z,36.70
2019-02-21T11:36:53.566Z,34.13
2019-02-21T11:39:26.531Z,34.00
2019-02-21T11:41:59.624Z,34.75
2019-02-21T11:44:32.563Z,31.95
2019-02-21T11:47:05.543Z,33.88
2019-02-21T11:49:38.531Z,31.95
2019-02-21T11:52:11.615Z,31.80
2019-02-21T11:54:45.431Z,32.60
2019-02-21T11:57:18.481Z,32.35
2019-02-21T11:59:51.491Z,34.13
2019-02-21T12:02:24.555Z,32.67
2019-02-21T12:04:57.737Z,31.87
2019-02-21T12:07:30.685Z,32.15
2019-02-21T12:10:04.797Z,33.73
2019-02-21T12:12:37.901Z,34.53
2019-02-21T12:15:11.567Z,32.58
2019-02-21T12:17:44.820Z,34.10
2019-02-21T12:20:18.196Z,41.42
2019-02-21T12:22:51.110Z,31.87
2019-02-21T12:25:24.116Z,30.10
2019-02-21T12:27:57.091Z,32.17
2019-02-21T12:30:30.264Z,30.77
2019-02-21T12:33:03.292Z,30.95
2019-02-21T12:35:36.406Z,31.20
2019-02-21T12:38:09.337Z,31.48
2019-02-21T12:40:42.378Z,31.60
2019-02-21T12:43:15.280Z,31.40
2019-02-21T12:45:48.345Z,32.00
2019-02-21T12:48:21.303Z,30.77
2019-02-21T12:50:54.127Z,30.23
2019-02-21T12:53:28.175Z,28.92
2019-02-21T12:56:01.672Z,29.98
2019-02-21T12:58:35.555Z,30.62
2019-02-21T13:01:08.537Z,29.72
2019-02-21T13:03:41.553Z,30.52
2019-02-21T13:06:14.491Z,28.95
2019-02-21T13:08:47.306Z,31.95
2019-02-21T13:11:20.948Z,29.92
2019-02-21T13:13:54.070Z,30.43
2019-02-21T13:16:27.331Z,28.67
2019-02-21T13:19:00.175Z,29.98
2019-02-21T13:21:33.435Z,29.52
2019-02-21T13:24:06.303Z,28.45
2019-02-21T13:26:39.391Z,28.45
2019-02-21T13:29:12.550Z,27.98
2019-02-21T13:31:45.491Z,27.10
2019-02-21T13:34:19.549Z,27.25
2019-02-21T13:36:52.456Z,25.92
2019-02-21T13:39:25.319Z,28.95
2019-02-21T13:41:58.288Z,26.17
2019-02-21T13:44:31.188Z,27.75
2019-02-21T13:47:04.342Z,26.85
2019-02-21T13:49:37.251Z,27.50
2019-02-21T13:52:10.080Z,27.37
2019-02-21T13:54:42.991Z,27.73
2019-02-21T13:57:15.874Z,27.45
2019-02-21T13:59:48.837Z,29.80
2019-02-21T14:02:21.843Z,28.23
2019-02-21T14:04:54.875Z,30.08
2019-02-21T14:07:27.790Z,30.52
2019-02-21T14:10:00.878Z,30.97
2019-02-21T14:12:33.795Z,29.98
2019-02-21T14:15:08.983Z,30.52
2019-02-21T14:17:41.944Z,30.37
2019-02-21T14:20:15.304Z,31.37
2019-02-21T14:22:48.242Z,32.13
2019-02-21T14:25:21.339Z,36.38
2019-02-21T14:27:54.149Z,35.30
2019-02-21T14:30:26.973Z,35.03
2019-02-21T14:32:59.968Z,36.90
2019-02-21T14:35:39.613Z,37.85
2019-02-21T14:38:12.820Z,36.48
2019-02-21T14:40:45.875Z,35.90
2019-02-21T14:43:18.900Z,35.60
2019-02-21T14:45:52.175Z,33.60
2019-02-21T14:48:26.809Z,34.15
2019-02-21T14:51:00.193Z,32.53
2019-02-21T14:53:33.342Z,31.93
2019-02-21T14:56:06.222Z,32.20
2019-02-21T14:58:39.253Z,32.50
2019-02-21T15:01:12.382Z,32.28
2019-02-21T15:03:45.549Z,31.25
2019-02-21T15:06:26.807Z,31.90
2019-02-21T15:08:53.315Z,30.90
2019-02-21T15:11:26.267Z,29.12
2019-02-21T15:13:59.354Z,28.12
2019-02-21T15:16:32.208Z,28.40
2019-02-21T15:19:05.450Z,28.27
2019-02-21T15:21:38.498Z,28.32
2019-02-21T15:24:13.090Z,27.32
2019-02-21T15:26:46.939Z,26.82
2019-02-21T15:29:20.348Z,27.58
2019-02-21T15:31:53.444Z,26.62
2019-02-21T15:34:26.415Z,25.32
2019-02-21T15:36:59.308Z,26.25
2019-02-21T15:39:32.570Z,26.57
2019-02-21T15:42:05.615Z,24.18
2019-02-21T15:44:38.551Z,23.70
2019-02-21T15:47:11.505Z,23.18
2019-02-21T15:49:44.675Z,23.50
2019-02-21T15:52:22.312Z,27.90
2019-02-21T15:54:52.533Z,24.20
2019-02-21T15:57:25.804Z,23.05
2019-02-21T15:59:58.878Z,26.65
2019-02-21T16:02:31.778Z,24.37
2019-02-21T16:05:05.080Z,25.08
2019-02-21T16:07:38.058Z,25.08
2019-02-21T16:10:13.472Z,24.63
2019-02-21T16:12:46.741Z,24.90
2019-02-21T16:15:19.852Z,25.55
2019-02-21T16:17:52.920Z,25.60
2019-02-21T16:20:25.994Z,25.12
2019-02-21T16:22:58.954Z,26.50
2019-02-21T16:25:32.230Z,29.07
2019-02-21T16:28:06.116Z,27.37
2019-02-21T16:30:38.978Z,26.77
2019-02-21T16:33:11.915Z,27.80
2019-02-21T16:35:45.034Z,27.22
2019-02-21T16:38:18.159Z,25.88
2019-02-21T16:40:51.244Z,26.40
2019-02-21T16:43:24.425Z,26.45
2019-02-21T16:46:07.375Z,26.05
2019-02-21T16:48:32.132Z,26.30
2019-02-21T16:51:05.031Z,26.97
2019-02-21T16:53:38.002Z,27.07
2019-02-21T16:56:13.501Z,26.95
2019-02-21T16:58:46.561Z,28.25
2019-02-21T17:01:19.511Z,28.10
2019-02-21T17:03:52.609Z,28.02
2019-02-21T17:06:25.480Z,27.48
2019-02-21T17:08:58.292Z,29.02
2019-02-21T17:11:31.285Z,29.75
2019-02-21T17:14:04.142Z,26.68
2019-02-21T17:16:37.437Z,27.75
2019-02-21T17:19:10.329Z,29.57
2019-02-21T17:21:43.394Z,27.62
2019-02-21T17:24:16.706Z,27.40
2019-02-21T17:26:49.770Z,27.25
2019-02-21T17:29:23.105Z,26.93
2019-02-21T17:31:56.000Z,25.82
2019-02-21T17:34:28.900Z,25.52
2019-02-21T17:37:01.951Z,26.52
2019-02-21T17:39:36.017Z,27.17
2019-02-21T17:42:09.141Z,26.97
2019-02-21T17:44:42.282Z,28.42
2019-02-21T17:47:15.292Z,26.85
2019-02-21T17:49:48.126Z,28.12
2019-02-21T17:52:21.232Z,25.32
2019-02-21T17:54:54.308Z,25.92
2019-02-21T17:57:27.125Z,27.32
2019-02-21T18:00:00.316Z,25.72
2019-02-21T18:02:33.600Z,27.98
2019-02-21T18:05:07.205Z,26.20
2019-02-21T18:07:40.221Z,25.92
2019-02-21T18:10:14.452Z,25.68
2019-02-21T18:12:47.411Z,25.77
2019-02-21T18:15:21.196Z,26.35
2019-02-21T18:17:54.374Z,26.40
2019-02-21T18:20:27.617Z,27.05
2019-02-21T18:23:00.700Z,27.22
2019-02-21T18:25:40.792Z,28.87
2019-02-21T18:28:13.999Z,30.90
2019-02-21T18:30:47.115Z,31.55
2019-02-21T18:33:20.525Z,31.75
2019-02-21T18:35:53.710Z,31.00
2019-02-21T18:38:26.661Z,31.73
2019-02-21T18:40:59.503Z,31.37
2019-02-21T18:43:33.496Z,32.20
2019-02-21T18:46:06.432Z,29.82
2019-02-21T18:48:39.618Z,31.10
2019-02-21T18:51:12.751Z,30.60
2019-02-21T18:53:45.552Z,31.75
2019-02-21T18:56:18.606Z,31.42
2019-02-21T18:58:51.607Z,32.00
2019-02-21T19:01:24.701Z,31.75
2019-02-21T19:03:57.959Z,32.15
2019-02-21T19:06:31.118Z,32.23
2019-02-21T19:09:05.854Z,35.98
2019-02-21T19:11:39.115Z,34.38
2019-02-21T19:14:12.083Z,36.25
2019-02-21T19:16:45.229Z,36.58
2019-02-21T19:19:18.377Z,36.45
2019-02-21T19:21:51.448Z,38.00
2019-02-21T19:24:24.532Z,38.42
2019-02-21T19:26:58.706Z,40.45
2019-02-21T19:29:32.002Z,39.23
2019-02-21T19:32:05.488Z,41.02
2019-02-21T19:34:47.553Z,40.05
2019-02-21T19:37:20.462Z,40.33
2019-02-21T19:39:53.313Z,39.97
2019-02-21T19:42:26.347Z,41.80
2019-02-21T19:44:59.234Z,41.20
2019-02-21T19:47:32.298Z,41.18
2019-02-21T19:50:05.935Z,40.63
2019-02-21T19:52:39.079Z,42.55
2019-02-21T19:55:12.698Z,43.65
2019-02-21T19:57:46.525Z,42.53
2019-02-21T20:00:21.389Z,40.83
2019-02-21T20:02:54.994Z,42.60
2019-02-21T20:05:28.399Z,41.42
2019-02-21T20:08:08.555Z,42.70
2019-02-21T20:10:36.446Z,41.00
2019-02-21T20:13:10.832Z,41.28
2019-02-21T20:15:44.223Z,42.43
2019-02-21T20:18:17.637Z,42.48
2019-02-21T20:20:51.567Z,42.73
2019-02-21T20:23:25.047Z,42.25
2019-02-21T20:25:58.048Z,42.15
2019-02-21T20:28:31.297Z,43.23
2019-02-21T20:31:05.306Z,42.50
2019-02-21T20:33:38.676Z,43.48
2019-02-21T20:36:11.667Z,44.95
2019-02-21T20:38:44.749Z,43.15
2019-02-21T20:41:17.804Z,41.90
2019-02-21T20:43:50.848Z,40.28
2019-02-21T20:46:23.965Z,41.30
2019-02-21T20:48:57.184Z,42.67
2019-02-21T20:51:30.088Z,42.20
2019-02-21T20:54:02.989Z,42.95
2019-02-21T20:56:36.063Z,42.93
2019-02-21T20:59:09.273Z,43.85
2019-02-21T21:01:42.648Z,43.90
2019-02-21T21:04:15.794Z,41.92
2019-02-21T21:06:48.978Z,44.58
2019-02-21T21:09:22.219Z,47.67
2019-02-21T21:11:55.197Z,45.80
2019-02-21T21:14:28.547Z,39.85
2019-02-21T21:17:01.575Z,40.78
2019-02-21T21:19:36.523Z,42.35
2019-02-21T21:22:09.546Z,38.28
2019-02-21T21:24:42.589Z,41.77
2019-02-21T21:27:15.455Z,40.80
2019-02-21T21:29:48.633Z,41.02
2019-02-21T21:32:21.669Z,41.63
2019-02-21T21:34:54.694Z,41.20
2019-02-21T21:37:28.773Z,42.40
2019-02-21T21:40:01.912Z,41.50
2019-02-21T21:42:35.499Z,43.08
2019-02-21T21:45:11.351Z,41.85
2019-02-21T21:47:44.375Z,40.90
2019-02-21T21:50:17.694Z,42.25
2019-02-21T21:52:51.154Z,40.75
2019-02-21T21:55:24.072Z,39.63
2019-02-21T21:57:57.171Z,41.10
2019-02-21T22:00:30.413Z,42.48
2019-02-21T22:03:03.485Z,43.98
2019-02-21T22:05:36.400Z,45.45
2019-02-21T22:08:09.310Z,44.73
2019-02-21T22:10:42.480Z,47.30
2019-02-21T22:13:15.254Z,47.43
2019-02-21T22:15:48.575Z,48.10
2019-02-21T22:18:21.549Z,49.88
2019-02-21T22:20:54.528Z,51.45
2019-02-21T22:23:27.447Z,51.28
2019-02-21T22:26:00.715Z,52.10
2019-02-21T22:28:34.191Z,50.63
2019-02-21T22:31:07.320Z,51.10
2019-02-21T22:33:40.414Z,52.67
2019-02-21T22:36:13.375Z,52.40
2019-02-21T22:38:47.420Z,55.52
2019-02-21T22:41:20.708Z,57.07
2019-02-21T22:43:53.571Z,56.80
2019-02-21T22:46:26.493Z,60.43
2019-02-21T22:48:59.629Z,60.10
2019-02-21T22:51:32.679Z,65.70
2019-02-21T22:54:06.102Z,63.75
2019-02-21T22:56:39.058Z,64.10
2019-02-21T22:59:11.943Z,68.12
2019-02-21T23:01:46.435Z,66.53
2019-02-21T23:05:07.313Z,67.23
2019-02-21T23:08:26.752Z,65.77
2019-02-21T23:10:59.780Z,69.23
2019-02-21T23:13:32.916Z,73.30
2019-02-21T23:16:05.886Z,72.93
2019-02-21T23:18:38.729Z,74.07
2019-02-21T23:21:11.502Z,73.40
2019-02-21T23:23:45.226Z,75.80
2019-02-21T23:26:18.360Z,75.80
2019-02-21T23:28:52.434Z,77.13
2019-02-21T23:31:25.690Z,79.33
2019-02-21T23:33:59.631Z,81.67
2019-02-21T23:36:32.721Z,83.17
2019-02-21T23:39:06.401Z,84.73
2019-02-21T23:41:40.534Z,86.93
2019-02-21T23:44:13.646Z,94.37
2019-02-21T23:46:47.134Z,88.90
2019-02-21T23:49:20.275Z,88.80
2019-02-21T23:51:53.422Z,88.87
2019-02-21T23:54:26.346Z,90.57
2019-02-21T23:56:59.339Z,90.45
2019-02-21T23:59:32.350Z,89.90
